Time;durP1;ratioP1;P1;durP2;ratioP2;P2;SDS_P1;SDS_P2;PMS_P1;PMS_P2;Temp;Humidity;BMP_temperature;BMP_pressure;BME280_temperature;BME280_humidity;BME280_pressure;Samples;Min_cycle;Max_cycle;Signal;HPM_P1;HPM_P2
2023/03/10 00:00:04;;;;;;;;;;;;;;;14.29;64.41;97738.16;5018711;28;8484;-87
2023/03/10 00:02:33;;;;;;;;;;;;;;;14.30;64.41;97743.31;5034330;28;6892;-87
2023/03/10 00:04:58;;;;;;;;;;;;;;;14.28;64.35;97737.28;5000612;28;8633;-86
2023/03/10 00:07:24;;;;;;;;;;;;;;;14.30;64.58;97745.88;4998922;28;8535;-87
2023/03/10 00:09:49;;;;;;;;;;;;;;;14.32;64.51;97742.44;4988383;28;8396;-87
2023/03/10 00:12:15;;;;;;;;;;;;;;;14.32;64.44;97745.00;5009316;28;8507;-86
2023/03/10 00:14:41;;;;;;;;;;;;;;;14.34;64.55;97751.00;5012248;28;6764;-85
2023/03/10 00:17:06;;;;;;;;;;;;;;;14.34;64.64;97753.56;5007209;28;7007;-87
2023/03/10 00:19:32;;;;;;;;;;;;;;;14.36;65.04;97754.41;4997445;28;7019;-87
2023/03/10 00:21:58;;;;;;;;;;;;;;;14.41;64.41;97762.97;4990775;28;8306;-87
2023/03/10 00:24:23;;;;;;;;;;;;;;;14.44;64.38;97761.22;5016203;28;6780;-88
2023/03/10 00:26:49;;;;;;;;;;;;;;;14.44;64.56;97768.06;5009756;28;6788;-87
2023/03/10 00:29:15;;;;;;;;;;;;;;;14.48;64.21;97767.16;5013894;28;8403;-84
2023/03/10 00:31:41;;;;;;;;;;;;;;;14.50;64.38;97785.19;5012590;28;6795;-88
2023/03/10 00:34:07;;;;;;;;;;;;;;;14.55;64.30;97773.13;4997549;28;6950;-86
2023/03/10 00:36:33;;;;;;;;;;;;;;;14.57;63.84;97779.94;4998177;28;6970;-87
2023/03/10 00:39:00;;;;;;;;;;;;;;;14.60;63.38;97784.22;5015500;28;6776;-86
2023/03/10 00:41:30;;;;;;;;;;;;;;;14.58;63.54;97784.25;5016199;28;7173;-87
2023/03/10 00:43:57;;;;;;;;;;;;;;;14.57;63.91;97781.69;5015561;28;7583;-85
2023/03/10 00:46:25;;;;;;;;;;;;;;;14.55;63.38;97786.84;5010012;28;8695;-87
2023/03/10 00:48:51;;;;;;;;;;;;;;;14.56;63.80;97788.56;5009401;28;8516;-84
2023/03/10 00:51:18;;;;;;;;;;;;;;;14.56;63.85;97782.56;5005944;28;6812;-87
2023/03/10 00:53:44;;;;;;;;;;;;;;;14.54;63.37;97785.16;4992983;28;8386;-86
2023/03/10 00:56:20;;;;;;;;;;;;;;;14.53;63.11;97778.28;4995308;28;8955;-84
2023/03/10 00:58:51;;;;;;;;;;;;;;;14.53;63.32;97780.88;5007965;28;7113;-83
2023/03/10 01:01:27;;;;;;;;;;;;;;;14.52;63.63;97762.81;5008141;28;8440;-82
2023/03/10 01:03:57;;;;;;;;;;;;;;;14.48;63.19;97764.56;5011516;28;9418;-82
2023/03/10 01:06:24;;;;;;;;;;;;;;;14.48;63.72;97767.16;5009465;28;8389;-84
2023/03/10 01:08:50;;;;;;;;;;;;;;;14.48;64.07;97772.31;5010607;28;8400;-84
2023/03/10 01:11:20;;;;;;;;;;;;;;;14.48;64.45;97769.72;5009367;28;6867;-85
2023/03/10 01:13:47;;;;;;;;;;;;;;;14.50;63.37;97772.31;5006780;28;6974;-85
2023/03/10 01:16:13;;;;;;;;;;;;;;;14.50;63.70;97757.72;5009605;28;7065;-83
2023/03/10 01:18:39;;;;;;;;;;;;;;;14.52;63.54;97755.97;4988710;28;8387;-85
2023/03/10 01:21:06;;;;;;;;;;;;;;;14.53;63.67;97756.81;5006318;28;7125;-85
2023/03/10 01:23:32;;;;;;;;;;;;;;;14.55;63.49;97755.09;4988361;28;6962;-85
2023/03/10 01:25:57;;;;;;;;;;;;;;;14.56;64.06;97762.78;5013781;28;7151;-86
2023/03/10 01:28:23;;;;;;;;;;;;;;;14.54;63.46;97764.53;4996855;28;8356;-82
2023/03/10 01:30:49;;;;;;;;;;;;;;;14.53;63.39;97767.97;4982175;28;8514;-85
2023/03/10 01:33:16;;;;;;;;;;;;;;;14.55;63.63;97781.69;4972676;28;8509;-85
2023/03/10 01:35:43;;;;;;;;;;;;;;;14.58;63.47;97783.41;4967751;28;8416;-85
2023/03/10 01:38:09;;;;;;;;;;;;;;;14.58;64.06;97786.84;4968815;28;8477;-86
2023/03/10 01:40:36;;;;;;;;;;;;;;;14.58;62.91;97775.66;4985379;28;8341;-83
2023/03/10 01:43:25;;;;;;;;;;;;;;;14.51;64.06;97774.88;4993610;28;6982;-83
2023/03/10 01:45:50;;;;;;;;;;;;;;;14.42;62.93;97765.50;4989973;28;8407;-85
2023/03/10 01:48:18;;;;;;;;;;;;;;;14.36;63.75;97772.44;4986598;28;7349;-85
2023/03/10 01:50:48;;;;;;;;;;;;;;;14.32;63.11;97763.03;4990500;28;6872;-82
2023/03/10 01:53:16;;;;;;;;;;;;;;;14.27;63.91;97758.78;4978992;28;8386;-86
2023/03/10 01:55:48;;;;;;;;;;;;;;;14.22;63.52;97750.25;4973526;28;6998;-85
2023/03/10 01:58:19;;;;;;;;;;;;;;;14.20;63.59;97759.72;4992775;28;7583;-82
2023/03/10 02:00:45;;;;;;;;;;;;;;;14.15;63.11;97746.88;4974216;28;8572;-85
2023/03/10 02:03:23;;;;;;;;;;;;;;;14.12;63.84;97738.31;4995143;28;6932;-85
2023/03/10 02:06:04;;;;;;;;;;;;;;;14.13;63.92;97758.06;4974159;28;8901;-82
2023/03/10 02:08:37;;;;;;;;;;;;;;;14.15;64.02;97752.03;4983634;28;8462;-84
2023/03/10 02:11:04;;;;;;;;;;;;;;;14.19;63.05;97750.25;4993814;28;6835;-85
2023/03/10 02:13:30;;;;;;;;;;;;;;;14.22;63.49;97750.25;4996368;28;8171;-82
2023/03/10 02:15:56;;;;;;;;;;;;;;;14.25;62.96;97742.47;4996061;28;7241;-82
2023/03/10 02:18:23;;;;;;;;;;;;;;;14.28;63.22;97739.03;4985090;28;7269;-84
2023/03/10 02:21:33;;;;;;;;;;;;;;;14.30;63.44;97733.00;4976944;28;7073;-85
2023/03/10 02:24:12;;;;;;;;;;;;;;;14.29;64.59;97733.88;4972783;28;7288;-81
2023/03/10 02:27:05;;;;;;;;;;;;;;;14.30;63.49;97738.16;4991569;28;7202;-85
2023/03/10 02:29:45;;;;;;;;;;;;;;;14.33;63.68;97733.84;4978241;28;7445;-85
2023/03/10 02:32:14;;;;;;;;;;;;;;;14.30;63.74;97726.97;5009790;28;7332;-85
2023/03/10 02:34:40;;;;;;;;;;;;;;;14.28;64.39;97726.97;5010955;28;7256;-84
2023/03/10 02:37:05;;;;;;;;;;;;;;;14.28;64.47;97719.25;5029400;28;8531;-84
2023/03/10 02:39:32;;;;;;;;;;;;;;;14.28;63.60;97703.78;4991940;28;8411;-85
2023/03/10 02:41:57;;;;;;;;;;;;;;;14.25;63.46;97709.00;4995776;28;6956;-86
2023/03/10 02:44:24;;;;;;;;;;;;;;;14.23;63.55;97705.59;4994541;28;8532;-85
2023/03/10 02:46:51;;;;;;;;;;;;;;;14.20;63.87;97702.19;4997259;28;8650;-85
2023/03/10 02:49:20;;;;;;;;;;;;;;;14.18;63.68;97699.59;5012327;28;7187;-85
2023/03/10 02:51:47;;;;;;;;;;;;;;;14.14;63.57;97697.94;5010792;28;6957;-85
2023/03/10 02:54:13;;;;;;;;;;;;;;;14.09;63.35;97699.69;5005896;28;8688;-85
2023/03/10 02:56:41;;;;;;;;;;;;;;;14.07;63.69;97699.72;5008629;28;8387;-83
2023/03/10 02:59:08;;;;;;;;;;;;;;;14.03;63.38;97701.47;5007190;28;8521;-83
2023/03/10 03:01:34;;;;;;;;;;;;;;;14.03;63.87;97709.22;5003094;28;6787;-85
2023/03/10 03:04:01;;;;;;;;;;;;;;;14.02;63.79;97704.06;4990321;28;8493;-86
2023/03/10 03:06:27;;;;;;;;;;;;;;;14.00;63.81;97706.66;5009338;28;7010;-83
2023/03/10 03:08:53;;;;;;;;;;;;;;;13.95;63.70;97708.41;5004276;28;8358;-82
2023/03/10 03:11:19;;;;;;;;;;;;;;;13.98;63.73;97705.81;4987052;28;6938;-85
2023/03/10 03:13:45;;;;;;;;;;;;;;;13.98;63.73;97700.66;5021282;28;6764;-83
2023/03/10 03:16:12;;;;;;;;;;;;;;;13.99;63.09;97696.38;5025812;28;6779;-85
2023/03/10 03:18:38;;;;;;;;;;;;;;;13.97;62.88;97696.38;5003738;28;8928;-84
2023/03/10 03:21:11;;;;;;;;;;;;;;;13.97;62.39;97696.38;4992370;28;8389;-82
2023/03/10 03:23:38;;;;;;;;;;;;;;;13.98;63.23;97692.94;4997794;28;6971;-82
2023/03/10 03:26:11;;;;;;;;;;;;;;;13.95;62.17;97690.38;5014104;28;6804;-83
2023/03/10 03:28:37;;;;;;;;;;;;;;;13.92;62.82;97682.72;4998104;28;8437;-81
2023/03/10 03:31:03;;;;;;;;;;;;;;;13.88;61.90;97679.31;5006259;28;8440;-83
2023/03/10 03:33:29;;;;;;;;;;;;;;;13.84;62.20;97672.44;4998149;28;8838;-82
2023/03/10 03:35:54;;;;;;;;;;;;;;;13.77;61.90;97675.97;5012472;28;6871;-83
2023/03/10 03:38:20;;;;;;;;;;;;;;;13.72;61.75;97670.00;5020126;28;6796;-82
2023/03/10 03:40:46;;;;;;;;;;;;;;;13.64;62.18;97672.66;5010314;28;8413;-82
2023/03/10 03:43:13;;;;;;;;;;;;;;;13.64;62.15;97662.34;4996600;28;8389;-82
2023/03/10 03:45:39;;;;;;;;;;;;;;;13.67;62.52;97667.47;4997329;28;8381;-83
2023/03/10 03:48:04;;;;;;;;;;;;;;;13.70;62.45;97667.44;5031514;28;7006;-83
2023/03/10 03:50:30;;;;;;;;;;;;;;;13.73;63.23;97662.28;4992961;28;6955;-84
2023/03/10 03:52:56;;;;;;;;;;;;;;;13.77;62.65;97657.97;5026111;28;6958;-81
2023/03/10 03:55:22;;;;;;;;;;;;;;;13.83;62.61;97659.63;5006396;28;8816;-85
2023/03/10 03:57:48;;;;;;;;;;;;;;;13.87;62.61;97658.72;4987957;28;8478;-85
2023/03/10 04:00:20;;;;;;;;;;;;;;;13.87;62.27;97661.28;5006440;28;6792;-85
2023/03/10 04:02:47;;;;;;;;;;;;;;;13.90;62.31;97661.25;4982695;28;7332;-86
2023/03/10 04:05:13;;;;;;;;;;;;;;;13.93;62.12;97663.81;5008532;28;6977;-85
2023/03/10 04:07:41;;;;;;;;;;;;;;;13.96;62.27;97647.47;5030219;28;8424;-85
2023/03/10 04:10:11;;;;;;;;;;;;;;;13.99;62.29;97660.31;4988909;28;8429;-86
2023/03/10 04:12:37;;;;;;;;;;;;;;;14.01;61.79;97656.88;5012220;28;7277;-86
2023/03/10 04:15:07;;;;;;;;;;;;;;;14.03;62.61;97656.84;5005812;28;6960;-85
2023/03/10 04:17:34;;;;;;;;;;;;;;;14.05;61.97;97633.66;4995676;28;8613;-85
2023/03/10 04:19:59;;;;;;;;;;;;;;;14.04;61.71;97658.53;4994900;28;8726;-81
2023/03/10 04:22:25;;;;;;;;;;;;;;;14.06;61.14;97650.81;5005554;28;6963;-85
2023/03/10 04:24:50;;;;;;;;;;;;;;;14.05;61.23;97649.97;4988102;28;8545;-85
2023/03/10 04:27:16;;;;;;;;;;;;;;;14.07;62.07;97648.22;4985842;28;8377;-85
2023/03/10 04:29:42;;;;;;;;;;;;;;;14.08;61.26;97651.63;5005105;28;6977;-84
2023/03/10 04:32:08;;;;;;;;;;;;;;;14.10;61.20;97647.31;5005945;28;6975;-85
2023/03/10 04:34:33;;;;;;;;;;;;;;;14.11;61.21;97649.88;4978761;28;8346;-84
2023/03/10 04:36:59;;;;;;;;;;;;;;;14.13;61.48;97643.00;4987920;28;6934;-84
2023/03/10 04:39:25;;;;;;;;;;;;;;;14.11;61.24;97646.47;5005220;28;7298;-84
2023/03/10 04:41:50;;;;;;;;;;;;;;;14.07;60.91;97650.81;4985134;28;8340;-83
2023/03/10 04:44:16;;;;;;;;;;;;;;;14.03;60.80;97643.97;4984364;28;7050;-85
2023/03/10 04:46:42;;;;;;;;;;;;;;;13.97;61.50;97639.72;4987985;28;6987;-84
2023/03/10 04:49:08;;;;;;;;;;;;;;;13.93;61.95;97643.22;4972795;28;8507;-85
2023/03/10 04:51:33;;;;;;;;;;;;;;;13.92;61.27;97630.34;5008838;28;6780;-86
2023/03/10 04:54:00;;;;;;;;;;;;;;;13.93;61.72;97632.03;4973184;28;8690;-85
2023/03/10 04:56:26;;;;;;;;;;;;;;;13.95;61.72;97638.91;4987425;28;8451;-85
2023/03/10 04:58:51;;;;;;;;;;;;;;;14.02;61.21;97632.81;5011716;28;8667;-85
2023/03/10 05:01:17;;;;;;;;;;;;;;;14.10;61.47;97635.31;4985276;28;8701;-84
2023/03/10 05:03:43;;;;;;;;;;;;;;;14.14;61.09;97625.81;4986427;28;7163;-81
2023/03/10 05:06:15;;;;;;;;;;;;;;;14.18;60.56;97627.47;4972829;28;8378;-81
2023/03/10 05:08:40;;;;;;;;;;;;;;;14.19;60.79;97625.78;5005974;28;7229;-83
2023/03/10 05:11:07;;;;;;;;;;;;;;;14.18;60.21;97627.47;5004465;28;7135;-81
2023/03/10 05:13:33;;;;;;;;;;;;;;;14.20;60.73;97622.31;5009036;28;6796;-81
2023/03/10 05:15:58;;;;;;;;;;;;;;;14.21;60.11;97624.03;5026810;28;7406;-83
2023/03/10 05:18:24;;;;;;;;;;;;;;;14.20;60.39;97620.63;5001576;28;8338;-82
2023/03/10 05:20:56;;;;;;;;;;;;;;;14.22;60.37;97624.03;4984490;28;8328;-81
2023/03/10 05:23:22;;;;;;;;;;;;;;;14.21;59.78;97611.16;5007187;28;6788;-81
2023/03/10 05:25:49;;;;;;;;;;;;;;;14.19;59.91;97618.88;5022766;28;7328;-80
2023/03/10 05:28:15;;;;;;;;;;;;;;;14.19;59.91;97618.88;4991372;28;8493;-82
2023/03/10 05:30:40;;;;;;;;;;;;;;;14.19;60.30;97621.47;5019597;28;8488;-82
2023/03/10 05:33:06;;;;;;;;;;;;;;;14.21;59.72;97626.59;4991537;28;6884;-82
2023/03/10 05:35:32;;;;;;;;;;;;;;;14.21;60.10;97621.44;5008809;28;7157;-81
2023/03/10 05:37:57;;;;;;;;;;;;;;;14.22;60.02;97629.19;4998017;28;6947;-86
2023/03/10 05:40:23;;;;;;;;;;;;;;;14.24;59.72;97626.56;4988033;28;6788;-84
2023/03/10 05:42:50;;;;;;;;;;;;;;;14.23;59.56;97625.72;4988503;28;6780;-83
2023/03/10 05:45:16;;;;;;;;;;;;;;;14.25;59.44;97628.28;4994296;28;6974;-81
2023/03/10 05:47:45;;;;;;;;;;;;;;;14.24;59.91;97622.28;4996095;28;7409;-83
2023/03/10 05:50:13;;;;;;;;;;;;;;;14.25;59.92;97623.97;5002533;28;6780;-82
2023/03/10 05:52:42;;;;;;;;;;;;;;;14.25;59.89;97630.88;5018066;28;8402;-84
2023/03/10 05:55:13;;;;;;;;;;;;;;;14.25;59.71;97629.13;4986234;28;8435;-84
2023/03/10 05:57:38;;;;;;;;;;;;;;;14.25;59.18;97631.72;4987588;28;7321;-81
2023/03/10 06:00:09;;;;;;;;;;;;;;;14.21;59.61;97632.63;5010847;28;8364;-83
2023/03/10 06:02:37;;;;;;;;;;;;;;;14.19;59.53;97626.63;5035198;28;13152;-81
2023/03/10 06:05:05;;;;;;;;;;;;;;;14.18;59.56;97630.06;5019186;28;7276;-82
2023/03/10 06:07:31;;;;;;;;;;;;;;;14.18;59.61;97630.06;5005075;28;8573;-84
2023/03/10 06:09:57;;;;;;;;;;;;;;;14.19;59.41;97631.75;5007020;28;8315;-82
2023/03/10 06:12:23;;;;;;;;;;;;;;;14.21;59.31;97627.47;5003916;28;8683;-82
2023/03/10 06:14:48;;;;;;;;;;;;;;;14.21;60.12;97630.06;5032220;28;8529;-84
2023/03/10 06:17:14;;;;;;;;;;;;;;;14.20;59.92;97636.06;5018215;28;7003;-82
2023/03/10 06:19:39;;;;;;;;;;;;;;;14.22;59.43;97644.63;5012073;28;8350;-84
2023/03/10 06:22:05;;;;;;;;;;;;;;;14.23;59.16;97638.59;5035036;28;7533;-82
2023/03/10 06:24:31;;;;;;;;;;;;;;;14.24;59.26;97642.88;5005832;28;8559;-85
2023/03/10 06:26:56;;;;;;;;;;;;;;;14.28;59.85;97644.53;5017216;28;6764;-83
2023/03/10 06:29:22;;;;;;;;;;;;;;;14.28;59.55;97641.97;4995015;28;8789;-84
2023/03/10 06:31:48;;;;;;;;;;;;;;;14.29;59.58;97641.13;5017171;28;8413;-83
2023/03/10 06:34:14;;;;;;;;;;;;;;;14.30;59.75;97641.97;4971692;28;8428;-84
2023/03/10 06:36:40;;;;;;;;;;;;;;;14.28;60.12;97643.72;5013654;28;6970;-84
2023/03/10 06:39:06;;;;;;;;;;;;;;;14.26;59.19;97651.44;4991672;28;6780;-83
2023/03/10 06:41:35;;;;;;;;;;;;;;;14.25;59.88;97648.91;4987236;28;6855;-83
2023/03/10 06:44:01;;;;;;;;;;;;;;;14.22;59.74;97647.22;4969973;28;8476;-84
2023/03/10 06:46:28;;;;;;;;;;;;;;;14.18;60.30;97645.53;4983958;28;7492;-81
2023/03/10 06:48:55;;;;;;;;;;;;;;;14.12;59.33;97643.88;4991014;28;8764;-84
2023/03/10 06:51:21;;;;;;;;;;;;;;;14.06;60.30;97637.94;4983585;28;7208;-83
2023/03/10 06:53:51;;;;;;;;;;;;;;;14.01;60.31;97646.56;4961410;28;8416;-85
2023/03/10 06:56:21;;;;;;;;;;;;;;;14.02;60.97;97662.84;4990523;28;6804;-82
2023/03/10 06:58:47;;;;;;;;;;;;;;;14.00;60.55;97660.31;4983905;28;7135;-85
2023/03/10 07:01:30;;;;;;;;;;;;;;;13.98;60.66;97651.72;4991293;28;6856;-85
2023/03/10 07:03:58;;;;;;;;;;;;;;;13.93;60.39;97650.94;4989848;28;8618;-86
2023/03/10 07:06:24;;;;;;;;;;;;;;;13.88;60.52;97650.13;5005983;28;8491;-86
2023/03/10 07:08:52;;;;;;;;;;;;;;;13.84;60.62;97653.59;5005260;28;8430;-83
2023/03/10 07:11:18;;;;;;;;;;;;;;;13.78;60.30;97656.22;4995338;28;8564;-85
2023/03/10 07:13:44;;;;;;;;;;;;;;;13.72;60.29;97655.41;5006925;28;7539;-82
2023/03/10 07:16:09;;;;;;;;;;;;;;;13.68;60.85;97658.03;5012609;28;6783;-82
2023/03/10 07:18:35;;;;;;;;;;;;;;;13.64;60.56;97651.19;5010062;28;8381;-84
2023/03/10 07:21:01;;;;;;;;;;;;;;;13.60;61.14;97655.50;5013869;28;6764;-83
2023/03/10 07:23:26;;;;;;;;;;;;;;;13.63;61.57;97655.50;5015672;28;7405;-85
2023/03/10 07:25:56;;;;;;;;;;;;;;;13.66;61.01;97652.88;4999444;28;6936;-86
2023/03/10 07:28:26;;;;;;;;;;;;;;;13.69;61.20;97650.28;4987467;28;6977;-86
2023/03/10 07:30:53;;;;;;;;;;;;;;;13.72;61.29;97647.69;5003483;28;7216;-86
2023/03/10 07:33:19;;;;;;;;;;;;;;;13.79;60.81;97655.34;4996227;28;8423;-86
2023/03/10 07:35:47;;;;;;;;;;;;;;;13.87;61.64;97664.72;4999437;28;8807;-87
2023/03/10 07:38:13;;;;;;;;;;;;;;;13.95;61.01;97662.06;4997261;28;7146;-86
2023/03/10 07:40:40;;;;;;;;;;;;;;;14.03;61.43;97660.28;5005103;28;6768;-86
2023/03/10 07:43:06;;;;;;;;;;;;;;;14.13;61.02;97655.03;5019640;28;7053;-83
2023/03/10 07:45:32;;;;;;;;;;;;;;;14.22;61.36;97666.94;5006214;28;8342;-85
2023/03/10 07:47:58;;;;;;;;;;;;;;;14.28;61.24;97664.31;5008924;28;7323;-86
2023/03/10 07:50:24;;;;;;;;;;;;;;;14.35;61.35;97668.53;5011823;28;6933;-87
2023/03/10 07:52:50;;;;;;;;;;;;;;;14.39;61.10;97670.19;4997692;28;8386;-85
2023/03/10 07:55:17;;;;;;;;;;;;;;;14.44;60.90;97675.31;5005914;28;6943;-86
2023/03/10 07:57:43;;;;;;;;;;;;;;;14.49;60.70;97676.13;5009062;28;6800;-84
2023/03/10 08:00:09;;;;;;;;;;;;;;;14.54;60.20;97678.63;5008918;28;6947;-86
2023/03/10 08:02:35;;;;;;;;;;;;;;;14.57;60.74;97676.84;4991997;28;11764;-85
2023/03/10 08:05:01;;;;;;;;;;;;;;;14.67;59.84;97681.91;4989828;28;8480;-83
2023/03/10 08:07:26;;;;;;;;;;;;;;;14.70;60.00;97676.72;4991138;28;8411;-87
2023/03/10 08:09:53;;;;;;;;;;;;;;;14.80;60.03;97680.94;5008599;28;7178;-87
2023/03/10 08:12:20;;;;;;;;;;;;;;;14.88;59.49;97680.81;5007913;28;7386;-84
2023/03/10 08:14:47;;;;;;;;;;;;;;;14.94;59.22;97682.47;4984763;28;8493;-87
2023/03/10 08:17:13;;;;;;;;;;;;;;;14.95;58.75;97689.31;5023319;28;6959;-85
2023/03/10 08:19:39;;;;;;;;;;;;;;;14.93;58.55;97679.03;5007006;28;7178;-85
2023/03/10 08:22:05;;;;;;;;;;;;;;;14.95;58.64;97686.75;5007838;28;6776;-86
2023/03/10 08:24:31;;;;;;;;;;;;;;;14.96;58.34;97689.31;4989331;28;8525;-86
2023/03/10 08:26:56;;;;;;;;;;;;;;;14.97;58.70;97680.69;4987383;28;7221;-85
2023/03/10 08:29:23;;;;;;;;;;;;;;;15.02;58.30;97687.50;4991459;28;8721;-87
2023/03/10 08:31:52;;;;;;;;;;;;;;;15.09;58.04;97682.25;4988074;28;8504;-86
2023/03/10 08:34:17;;;;;;;;;;;;;;;15.15;58.18;97681.31;4986102;28;7300;-85
2023/03/10 08:36:43;;;;;;;;;;;;;;;15.24;58.28;97680.31;5001556;28;6965;-85
2023/03/10 08:39:11;;;;;;;;;;;;;;;15.35;58.44;97685.34;5023038;28;7172;-86
2023/03/10 08:41:44;;;;;;;;;;;;;;;15.43;57.43;97683.50;4989350;28;8519;-86
2023/03/10 08:44:14;;;;;;;;;;;;;;;15.55;57.22;97672.13;4986054;28;7252;-86
2023/03/10 08:46:43;;;;;;;;;;;;;;;15.63;56.96;97680.59;5007014;28;6999;-85
2023/03/10 08:49:10;;;;;;;;;;;;;;;15.73;56.76;97665.81;5006325;28;7609;-86
2023/03/10 08:51:36;;;;;;;;;;;;;;;15.83;56.65;97669.06;5005929;28;7191;-86
2023/03/10 08:54:03;;;;;;;;;;;;;;;15.90;56.49;97662.97;5004613;28;8375;-86
2023/03/10 08:56:29;;;;;;;;;;;;;;;15.99;56.36;97674.88;5006402;28;6961;-85
2023/03/10 08:58:58;;;;;;;;;;;;;;;16.04;55.59;97673.06;4988719;28;8125;-85
2023/03/10 09:01:30;;;;;;;;;;;;;;;16.15;55.83;97680.63;5007199;28;7032;-87
2023/03/10 09:04:05;;;;;;;;;;;;;;;16.24;55.35;97677.88;5010008;28;7069;-87
2023/03/10 09:06:31;;;;;;;;;;;;;;;16.30;55.32;97676.91;5011095;28;6973;-86
2023/03/10 09:08:57;;;;;;;;;;;;;;;16.34;54.57;97673.34;4993909;28;8702;-85
2023/03/10 09:11:27;;;;;;;;;;;;;;;16.40;54.86;97669.81;5010113;28;8435;-86
2023/03/10 09:13:53;;;;;;;;;;;;;;;16.46;54.92;97672.28;5009389;28;8743;-87
2023/03/10 09:16:20;;;;;;;;;;;;;;;16.52;54.27;97682.50;5010692;28;8540;-86
2023/03/10 09:18:46;;;;;;;;;;;;;;;16.54;53.73;97677.28;4987334;28;8376;-87
2023/03/10 09:21:15;;;;;;;;;;;;;;;16.57;53.15;97671.22;4985634;28;6948;-86
2023/03/10 09:23:44;;;;;;;;;;;;;;;16.61;53.37;97676.28;5010086;28;7033;-86
2023/03/10 09:26:09;;;;;;;;;;;;;;;16.68;53.16;97671.84;4994541;28;8411;-83
2023/03/10 09:28:36;;;;;;;;;;;;;;;16.71;53.36;97682.13;5007930;28;8421;-87
2023/03/10 09:31:04;;;;;;;;;;;;;;;16.76;53.41;97675.13;4989170;28;8430;-83
2023/03/10 09:33:31;;;;;;;;;;;;;;;16.80;53.42;97666.44;4978764;28;6812;-85
2023/03/10 09:35:58;;;;;;;;;;;;;;;16.86;52.96;97677.50;4981831;28;8502;-86
2023/03/10 09:38:24;;;;;;;;;;;;;;;16.86;53.11;97678.38;4994641;28;6976;-88
2023/03/10 09:41:31;;;;;;;;;;;;;;;16.80;52.61;97671.59;4994154;28;6968;-87
2023/03/10 09:44:57;;;;;;;;;;;;;;;16.69;52.13;97670.94;4960663;28;8448;-90
2023/03/10 09:47:41;;;;;;;;;;;;;;;16.65;52.24;97683.09;4991996;28;8794;-88
2023/03/10 09:50:49;;;;;;;;;;;;;;;16.62;52.29;97677.16;5001733;28;7303;-89
2023/03/10 09:53:31;;;;;;;;;;;;;;;16.59;51.86;97682.38;4989540;28;8482;-90
2023/03/10 09:55:57;;;;;;;;;;;;;;;16.56;52.08;97679.84;4996979;28;8628;-90
2023/03/10 09:58:35;;;;;;;;;;;;;;;16.56;51.88;97672.09;5012231;28;8391;-89
2023/03/10 10:01:25;;;;;;;;;;;;;;;16.52;52.01;97681.66;4982746;28;7038;-90
2023/03/10 10:03:58;;;;;;;;;;;;;;;16.51;52.13;97685.13;4978602;28;8724;-89
2023/03/10 10:06:31;;;;;;;;;;;;;;;16.49;52.04;97677.38;4997233;28;7142;-89
2023/03/10 10:09:03;;;;;;;;;;;;;;;16.46;52.07;97674.00;5009231;28;8438;-88
2023/03/10 10:11:28;;;;;;;;;;;;;;;16.44;52.06;97678.34;5001911;28;6988;-87
2023/03/10 10:14:19;;;;;;;;;;;;;;;16.40;52.66;97690.47;5019698;28;8406;-89
2023/03/10 10:16:50;;;;;;;;;;;;;;;16.40;52.37;97687.06;4995473;28;6819;-89
2023/03/10 10:19:23;;;;;;;;;;;;;;;16.41;52.56;97689.59;5013334;28;8366;-89
2023/03/10 10:21:51;;;;;;;;;;;;;;;16.46;52.65;97686.91;5002257;28;7203;-86
2023/03/10 10:24:19;;;;;;;;;;;;;;;16.43;52.62;97687.84;4967235;28;8395;-87
2023/03/10 10:26:44;;;;;;;;;;;;;;;16.32;52.83;97689.78;4969259;28;8595;-87
2023/03/10 10:29:41;;;;;;;;;;;;;;;16.12;52.65;97693.56;4993899;28;7174;-87
2023/03/10 10:32:14;;;;;;;;;;;;;;;15.92;53.01;97702.53;4993361;28;6996;-88
2023/03/10 10:34:43;;;;;;;;;;;;;;;15.69;54.01;97695.13;4989773;28;6963;-88
2023/03/10 10:37:34;;;;;;;;;;;;;;;15.51;54.38;97704.03;4998011;28;8339;-87
2023/03/10 10:40:00;;;;;;;;;;;;;;;15.28;54.14;97698.31;4988883;28;7366;-85
2023/03/10 10:42:29;;;;;;;;;;;;;;;15.09;54.83;97710.63;4992232;28;8729;-88
2023/03/10 10:45:02;;;;;;;;;;;;;;;14.92;54.85;97713.44;5007075;28;6966;-88
2023/03/10 10:47:32;;;;;;;;;;;;;;;14.74;56.24;97706.78;4988276;28;7040;-87
2023/03/10 10:50:18;;;;;;;;;;;;;;;14.57;55.60;97712.09;4994628;28;8550;-88
2023/03/10 10:52:48;;;;;;;;;;;;;;;14.45;56.28;97707.94;4992306;28;8656;-87
2023/03/10 10:55:33;;;;;;;;;;;;;;;14.32;57.02;97707.19;4966170;28;8433;-87
2023/03/10 10:58:05;;;;;;;;;;;;;;;14.20;57.47;97697.91;4980825;28;8463;-89
2023/03/10 11:00:37;;;;;;;;;;;;;;;14.10;58.08;97696.25;4995306;28;6812;-86
2023/03/10 11:03:32;;;;;;;;;;;;;;;14.01;57.72;97690.34;4996907;28;8428;-81
2023/03/10 11:06:00;;;;;;;;;;;;;;;13.95;58.27;97685.25;4999163;28;7203;-87
2023/03/10 11:08:25;;;;;;;;;;;;;;;13.92;58.89;97687.84;4991651;28;6979;-86
2023/03/10 11:11:18;;;;;;;;;;;;;;;13.95;59.05;97686.94;4994572;28;6992;-83
2023/03/10 11:14:04;;;;;;;;;;;;;;;13.98;59.14;97682.63;4991670;28;7035;-83
2023/03/10 11:16:58;;;;;;;;;;;;;;;13.99;58.97;97684.34;4993591;28;7185;-85
2023/03/10 11:20:07;;;;;;;;;;;;;;;14.00;59.03;97688.63;5008005;28;8634;-84
2023/03/10 11:23:07;;;;;;;;;;;;;;;14.01;60.10;97684.31;4969020;28;7391;-84
2023/03/10 11:26:05;;;;;;;;;;;;;;;13.99;59.78;97684.34;4994265;28;7196;-85
2023/03/10 11:28:55;;;;;;;;;;;;;;;13.97;59.96;97690.38;4996123;28;7229;-84
2023/03/10 11:31:41;;;;;;;;;;;;;;;14.02;60.31;97689.47;4999395;28;8768;-85
2023/03/10 11:34:31;;;;;;;;;;;;;;;14.03;60.46;97688.59;4971848;28;7068;-85
2023/03/10 11:37:38;;;;;;;;;;;;;;;14.09;60.56;97684.25;4989329;28;6992;-86
2023/03/10 11:40:18;;;;;;;;;;;;;;;14.13;60.44;97678.22;4991688;28;7222;-86
2023/03/10 11:43:15;;;;;;;;;;;;;;;14.15;61.42;97679.91;4998993;28;8539;-86
2023/03/10 11:45:54;;;;;;;;;;;;;;;14.19;61.48;97667.81;4970860;28;8434;-87
2023/03/10 11:48:31;;;;;;;;;;;;;;;14.26;61.40;97664.31;4970015;28;8443;-85
2023/03/10 11:51:02;;;;;;;;;;;;;;;14.30;61.11;97657.41;4993708;28;6985;-85
2023/03/10 11:53:51;;;;;;;;;;;;;;;14.34;61.13;97660.81;4979409;28;8783;-84
2023/03/10 11:56:22;;;;;;;;;;;;;;;14.30;61.01;97658.28;4980654;28;8949;-85
2023/03/10 11:59:27;;;;;;;;;;;;;;;14.36;61.12;97656.50;4983343;28;8469;-86
2023/03/10 12:02:08;;;;;;;;;;;;;;;14.39;61.61;97643.56;5003858;28;9040;-86
2023/03/10 12:04:52;;;;;;;;;;;;;;;14.39;61.55;97649.59;4998667;28;8740;-87
2023/03/10 12:07:38;;;;;;;;;;;;;;;14.40;61.17;97640.16;5011670;28;6981;-87
2023/03/10 12:10:24;;;;;;;;;;;;;;;14.42;61.62;97643.56;5024846;23;8668;-77
2023/03/10 12:12:52;;;;;;;;;;;;;;;14.45;62.09;97640.94;4985619;28;6891;-77
2023/03/10 12:15:35;;;;;;;;;;;;;;;14.50;61.99;97644.31;4985896;28;7207;-76
2023/03/10 12:18:07;;;;;;;;;;;;;;;14.56;62.35;97644.22;4986211;28;6990;-77
2023/03/10 12:20:34;;;;;;;;;;;;;;;14.63;61.54;97628.69;4985478;28;7289;-77
2023/03/10 12:23:23;;;;;;;;;;;;;;;14.62;61.79;97632.16;4980886;28;8059;-77
2023/03/10 12:25:48;;;;;;;;;;;;;;;14.61;62.18;97638.16;4982312;28;7004;-77
2023/03/10 12:28:32;;;;;;;;;;;;;;;14.63;61.99;97641.56;4987057;28;6764;-77
2023/03/10 12:31:31;;;;;;;;;;;;;;;14.63;61.55;97645.03;4966516;28;8710;-76
2023/03/10 12:34:31;;;;;;;;;;;;;;;14.62;61.74;97637.28;4985759;28;7187;-77
2023/03/10 12:37:11;;;;;;;;;;;;;;;14.58;62.13;97644.22;4987330;28;7339;-76
2023/03/10 12:39:43;;;;;;;;;;;;;;;14.55;61.63;97632.22;5003444;28;7142;-77
2023/03/10 12:42:28;;;;;;;;;;;;;;;14.56;61.60;97645.97;4982667;28;6808;-77
2023/03/10 12:45:28;;;;;;;;;;;;;;;14.56;62.17;97628.75;4988370;28;7107;-77
2023/03/10 12:48:09;;;;;;;;;;;;;;;14.56;62.70;97621.03;4987582;28;6812;-77
2023/03/10 12:50:46;;;;;;;;;;;;;;;14.61;62.15;97630.44;4983503;28;6864;-77
2023/03/10 12:53:37;;;;;;;;;;;;;;;14.69;62.75;97616.56;4966803;28;6891;-76
2023/03/10 12:56:12;;;;;;;;;;;;;;;14.73;63.06;97630.31;4966032;28;7170;-77
2023/03/10 12:59:00;;;;;;;;;;;;;;;14.72;62.44;97639.75;4967102;28;6944;-76
2023/03/10 13:01:40;;;;;;;;;;;;;;;14.74;62.32;97655.22;4962292;28;7056;-77
2023/03/10 13:04:12;;;;;;;;;;;;;;;14.64;62.27;97636.41;4951475;28;7224;-77
2023/03/10 13:06:45;;;;;;;;;;;;;;;14.56;61.35;97656.28;4966107;28;6867;-76
2023/03/10 13:09:37;;;;;;;;;;;;;;;14.50;61.19;97646.03;4966111;28;6960;-76
2023/03/10 13:12:25;;;;;;;;;;;;;;;14.39;61.14;97648.72;4966143;28;7280;-77
2023/03/10 13:14:55;;;;;;;;;;;;;;;14.27;61.40;97649.72;4953156;28;7283;-76
2023/03/10 13:17:31;;;;;;;;;;;;;;;14.09;60.72;97654.22;4959133;28;7052;-77